Time;durP1;ratioP1;P1;durP2;ratioP2;P2;SDS_P1;SDS_P2;PMS_P1;PMS_P2;Temp;Humidity;BMP_temperature;BMP_pressure;BME280_temperature;BME280_humidity;BME280_pressure;Samples;Min_cycle;Max_cycle;Signal;HPM_P1;HPM_P2
2021/08/04 00:01:12;;;;;;;4.90;3.67;;;;;;;;;;5034481;28;20022;-67
2021/08/04 00:03:38;;;;;;;4.65;3.55;;;;;;;;;;5034612;28;20030;-66
2021/08/04 00:06:04;;;;;;;5.20;3.80;;;;;;;;;;5034473;28;20030;-66
2021/08/04 00:08:30;;;;;;;5.90;3.60;;;;;;;;;;5034371;28;20025;-67
2021/08/04 00:10:56;;;;;;;5.30;3.83;;;;;;;;;;5034602;28;20151;-67
2021/08/04 00:13:22;;;;;;;4.97;3.88;;;;;;;;;;5033673;28;20103;-67
2021/08/04 00:15:48;;;;;;;5.25;3.90;;;;;;;;;;5033690;28;20040;-66
2021/08/04 00:18:14;;;;;;;4.13;3.72;;;;;;;;;;5033929;28;20091;-66
2021/08/04 00:20:41;;;;;;;6.45;4.10;;;;;;;;;;5034252;28;20075;-66
2021/08/04 00:23:07;;;;;;;5.20;3.65;;;;;;;;;;5033896;28;20027;-66
2021/08/04 00:25:33;;;;;;;5.25;3.20;;;;;;;;;;5034180;28;20498;-67
2021/08/04 00:27:59;;;;;;;5.55;3.47;;;;;;;;;;5034189;28;20028;-67
2021/08/04 00:30:25;;;;;;;5.82;3.78;;;;;;;;;;5034002;28;20025;-68
2021/08/04 00:32:54;;;;;;;6.40;3.95;;;;;;;;;;5033817;28;20025;-67
2021/08/04 00:35:20;;;;;;;5.90;3.65;;;;;;;;;;5033755;28;20029;-67
2021/08/04 00:37:46;;;;;;;6.25;4.75;;;;;;;;;;5033372;28;20087;-67
2021/08/04 00:40:12;;;;;;;6.63;4.00;;;;;;;;;;5033765;28;20036;-67
2021/08/04 00:42:38;;;;;;;5.00;3.60;;;;;;;;;;5033015;28;20029;-66
2021/08/04 00:45:05;;;;;;;6.00;4.00;;;;;;;;;;5033682;28;20101;-67
2021/08/04 00:47:31;;;;;;;5.72;4.07;;;;;;;;;;5033633;28;20157;-67
2021/08/04 00:49:57;;;;;;;20.15;4.78;;;;;;;;;;5033285;28;20042;-67
2021/08/04 00:52:23;;;;;;;5.63;3.75;;;;;;;;;;5032820;28;20021;-67
2021/08/04 00:54:50;;;;;;;5.43;4.20;;;;;;;;;;5033321;28;20021;-67
2021/08/04 00:57:16;;;;;;;4.57;3.70;;;;;;;;;;5033535;28;20096;-66
2021/08/04 00:59:42;;;;;;;8.13;3.90;;;;;;;;;;5033552;28;20056;-66
2021/08/04 01:02:08;;;;;;;4.30;3.80;;;;;;;;;;5033179;28;20037;-66
2021/08/04 01:04:42;;;;;;;4.90;3.83;;;;;;;;;;5033420;28;20021;-65
2021/08/04 01:07:16;;;;;;;7.07;4.20;;;;;;;;;;5032051;28;20028;-65
2021/08/04 01:09:45;;;;;;;6.68;4.25;;;;;;;;;;5028509;28;20079;-66
2021/08/04 01:12:12;;;;;;;6.45;4.28;;;;;;;;;;5029985;28;20030;-66
2021/08/04 01:14:39;;;;;;;6.00;3.97;;;;;;;;;;5032992;28;20021;-67
2021/08/04 01:17:05;;;;;;;5.32;4.38;;;;;;;;;;5032804;28;20025;-67
2021/08/04 01:19:35;;;;;;;4.70;3.90;;;;;;;;;;5033159;28;20017;-67
2021/08/04 01:22:01;;;;;;;4.63;4.13;;;;;;;;;;5032360;28;20026;-67
2021/08/04 01:24:29;;;;;;;6.03;4.43;;;;;;;;;;5032620;28;20036;-67
2021/08/04 01:26:56;;;;;;;4.90;3.72;;;;;;;;;;5013468;28;20480;-67
2021/08/04 01:29:23;;;;;;;6.10;4.13;;;;;;;;;;5013294;28;20030;-66
2021/08/04 01:31:51;;;;;;;5.55;4.18;;;;;;;;;;5013163;28;20046;-67
2021/08/04 01:34:21;;;;;;;5.65;4.00;;;;;;;;;;5030559;28;20044;-67
2021/08/04 01:36:48;;;;;;;5.93;4.05;;;;;;;;;;5032522;28;20022;-67
2021/08/04 01:39:14;;;;;;;5.82;4.10;;;;;;;;;;5032930;28;20028;-67
2021/08/04 01:41:41;;;;;;;5.70;4.50;;;;;;;;;;5032480;28;20021;-66
2021/08/04 01:44:08;;;;;;;5.32;3.70;;;;;;;;;;5031824;28;20472;-66
2021/08/04 01:46:34;;;;;;;6.28;4.10;;;;;;;;;;5032768;28;20029;-67
2021/08/04 01:49:01;;;;;;;6.68;4.43;;;;;;;;;;5032695;28;20018;-66
2021/08/04 01:51:27;;;;;;;6.18;4.05;;;;;;;;;;5032276;28;20026;-67
2021/08/04 01:53:54;;;;;;;5.57;3.97;;;;;;;;;;5028025;28;20064;-69
2021/08/04 01:56:20;;;;;;;5.63;3.75;;;;;;;;;;5013108;28;20055;-68
2021/08/04 01:58:46;;;;;;;5.72;4.30;;;;;;;;;;5019411;28;20357;-65
2021/08/04 02:01:12;;;;;;;6.05;4.18;;;;;;;;;;5032090;28;20069;-66
2021/08/04 02:03:39;;;;;;;5.47;4.18;;;;;;;;;;5031976;28;20060;-67
2021/08/04 02:06:24;;;;;;;5.85;3.53;;;;;;;;;;5031448;28;20038;-66
2021/08/04 02:08:53;;;;;;;6.85;3.97;;;;;;;;;;5032455;28;20030;-67
2021/08/04 02:11:22;;;;;;;6.55;3.63;;;;;;;;;;5031680;28;20025;-66
2021/08/04 02:14:00;;;;;;;6.93;4.57;;;;;;;;;;5032297;28;20090;-66
2021/08/04 02:16:28;;;;;;;5.68;4.32;;;;;;;;;;5032068;28;20032;-65
2021/08/04 02:18:57;;;;;;;6.95;4.28;;;;;;;;;;5032074;28;20041;-66
2021/08/04 02:21:25;;;;;;;6.80;4.03;;;;;;;;;;5031716;28;20025;-65
2021/08/04 02:23:51;;;;;;;5.38;3.63;;;;;;;;;;5032207;28;20032;-66
2021/08/04 02:26:18;;;;;;;6.35;4.18;;;;;;;;;;5017318;28;20107;-67
2021/08/04 02:28:46;;;;;;;4.65;3.70;;;;;;;;;;5012628;28;20026;-67
2021/08/04 02:31:14;;;;;;;7.18;4.93;;;;;;;;;;5027661;28;20483;-67
2021/08/04 02:33:40;;;;;;;6.10;4.13;;;;;;;;;;5031885;28;20426;-66
2021/08/04 02:36:07;;;;;;;3.88;3.45;;;;;;;;;;5031442;28;20029;-67
2021/08/04 02:38:33;;;;;;;5.50;3.65;;;;;;;;;;5031977;28;20033;-68
2021/08/04 02:41:00;;;;;;;5.38;4.25;;;;;;;;;;5032236;28;20029;-67
2021/08/04 02:43:26;;;;;;;7.10;4.47;;;;;;;;;;5031515;28;20116;-66
2021/08/04 02:45:53;;;;;;;5.15;4.03;;;;;;;;;;5031861;28;20484;-66
2021/08/04 02:48:19;;;;;;;6.68;4.10;;;;;;;;;;5031833;28;20084;-66
2021/08/04 02:50:51;;;;;;;7.13;4.18;;;;;;;;;;5031743;28;20021;-65
2021/08/04 02:53:18;;;;;;;4.65;3.90;;;;;;;;;;5031394;28;20569;-65
2021/08/04 02:55:44;;;;;;;6.20;4.28;;;;;;;;;;5026095;28;20026;-66
2021/08/04 02:58:14;;;;;;;5.13;3.75;;;;;;;;;;5012615;28;20033;-66
2021/08/04 03:00:40;;;;;;;7.05;4.22;;;;;;;;;;5030970;28;20029;-67
2021/08/04 03:03:07;;;;;;;7.90;4.78;;;;;;;;;;5031694;28;20053;-66
2021/08/04 03:05:33;;;;;;;6.88;4.40;;;;;;;;;;5031496;28;20475;-67
2021/08/04 03:07:59;;;;;;;4.93;3.90;;;;;;;;;;5031482;28;20042;-66
2021/08/04 03:10:25;;;;;;;5.75;4.53;;;;;;;;;;5030971;28;20480;-66
2021/08/04 03:12:51;;;;;;;7.55;5.07;;;;;;;;;;5031434;28;20083;-65
2021/08/04 03:15:18;;;;;;;7.95;4.65;;;;;;;;;;5032958;28;20447;-67
2021/08/04 03:17:44;;;;;;;4.75;3.90;;;;;;;;;;5035203;28;20036;-67
2021/08/04 03:20:10;;;;;;;5.75;3.80;;;;;;;;;;5035260;28;20048;-66
2021/08/04 03:22:36;;;;;;;6.15;4.07;;;;;;;;;;5035089;28;20033;-66
2021/08/04 03:25:05;;;;;;;5.55;3.97;;;;;;;;;;5034974;28;20060;-68
2021/08/04 03:27:31;;;;;;;5.28;4.15;;;;;;;;;;5035355;28;20102;-67
2021/08/04 03:29:57;;;;;;;4.93;4.07;;;;;;;;;;5035398;28;20173;-67
2021/08/04 03:32:23;;;;;;;5.50;3.53;;;;;;;;;;5034524;28;20430;-66
2021/08/04 03:34:49;;;;;;;6.55;4.20;;;;;;;;;;5034418;28;20056;-67
2021/08/04 03:37:15;;;;;;;4.88;3.70;;;;;;;;;;5034724;28;20070;-67
2021/08/04 03:39:41;;;;;;;5.35;3.78;;;;;;;;;;5034909;28;20032;-67
2021/08/04 03:42:08;;;;;;;6.22;3.90;;;;;;;;;;5034941;28;20104;-65
2021/08/04 03:44:34;;;;;;;5.45;3.92;;;;;;;;;;5034441;28;20033;-66
2021/08/04 03:47:00;;;;;;;10.02;4.35;;;;;;;;;;5034232;28;20033;-66
2021/08/04 03:49:26;;;;;;;6.38;4.10;;;;;;;;;;5034671;28;20563;-66
2021/08/04 03:51:52;;;;;;;4.38;3.55;;;;;;;;;;5034809;28;20507;-67
2021/08/04 03:54:18;;;;;;;5.13;3.83;;;;;;;;;;5034539;28;20024;-65
2021/08/04 03:56:44;;;;;;;5.65;3.88;;;;;;;;;;5034237;28;20033;-67
2021/08/04 03:59:10;;;;;;;5.75;3.50;;;;;;;;;;5028671;28;20034;-65
2021/08/04 04:01:36;;;;;;;8.38;4.38;;;;;;;;;;5022498;28;20128;-65
2021/08/04 04:04:02;;;;;;;4.82;4.20;;;;;;;;;;5034676;28;20468;-65
2021/08/04 04:06:28;;;;;;;7.57;4.40;;;;;;;;;;5034010;28;20045;-66
2021/08/04 04:08:54;;;;;;;5.38;4.10;;;;;;;;;;5034448;28;20487;-66
2021/08/04 04:11:20;;;;;;;5.90;3.67;;;;;;;;;;5033455;28;20037;-66
2021/08/04 04:13:46;;;;;;;5.70;3.95;;;;;;;;;;5034300;28;20562;-65
2021/08/04 04:16:12;;;;;;;5.25;3.60;;;;;;;;;;5034258;28;20091;-66
2021/08/04 04:18:39;;;;;;;6.50;4.50;;;;;;;;;;5025913;28;20484;-67
2021/08/04 04:21:06;;;;;;;5.03;3.92;;;;;;;;;;5028746;28;20033;-68
2021/08/04 04:23:32;;;;;;;7.35;4.30;;;;;;;;;;5033605;28;20049;-67
2021/08/04 04:25:58;;;;;;;4.78;3.80;;;;;;;;;;5032795;28;20029;-67
2021/08/04 04:28:25;;;;;;;5.97;4.30;;;;;;;;;;5033286;28;20033;-67
2021/08/04 04:30:51;;;;;;;7.88;4.13;;;;;;;;;;5034584;28;20107;-67
2021/08/04 04:33:17;;;;;;;4.63;3.95;;;;;;;;;;5033873;28;20026;-67
2021/08/04 04:35:43;;;;;;;5.32;4.05;;;;;;;;;;5033498;28;20029;-68
2021/08/04 04:38:09;;;;;;;6.32;4.07;;;;;;;;;;5032704;28;20033;-67
2021/08/04 04:40:35;;;;;;;5.82;4.13;;;;;;;;;;5014332;28;20063;-67
2021/08/04 04:43:01;;;;;;;6.70;4.05;;;;;;;;;;5002927;28;20025;-68
2021/08/04 04:45:27;;;;;;;8.68;4.25;;;;;;;;;;5015265;28;20036;-67
2021/08/04 04:47:53;;;;;;;6.72;4.18;;;;;;;;;;5013702;28;20479;-66
2021/08/04 04:50:20;;;;;;;8.15;4.57;;;;;;;;;;5013040;28;20030;-66
2021/08/04 04:53:04;;;;;;;4.97;4.13;;;;;;;;;;4997384;28;20072;-69
2021/08/04 04:55:31;;;;;;;6.60;4.50;;;;;;;;;;5015735;28;20082;-66
2021/08/04 04:57:57;;;;;;;4.25;3.35;;;;;;;;;;5015032;28;20036;-66
2021/08/04 05:00:23;;;;;;;6.25;4.75;;;;;;;;;;5013620;28;20030;-68
2021/08/04 05:02:49;;;;;;;6.50;4.28;;;;;;;;;;5031584;28;20099;-68
2021/08/04 05:05:15;;;;;;;5.68;4.28;;;;;;;;;;5015376;28;20087;-66
2021/08/04 05:07:41;;;;;;;5.93;4.00;;;;;;;;;;5034391;28;20018;-66
2021/08/04 05:10:08;;;;;;;6.28;4.38;;;;;;;;;;5032618;28;20025;-68
2021/08/04 05:12:34;;;;;;;6.20;4.22;;;;;;;;;;5033558;28;20026;-66
2021/08/04 05:15:01;;;;;;;6.07;4.40;;;;;;;;;;5032740;28;20032;-68
2021/08/04 05:17:27;;;;;;;5.97;4.60;;;;;;;;;;5032179;28;20040;-68
2021/08/04 05:19:53;;;;;;;11.00;4.38;;;;;;;;;;5032236;28;20387;-68
2021/08/04 05:22:22;;;;;;;5.45;4.50;;;;;;;;;;5034739;28;20025;-68
2021/08/04 05:24:48;;;;;;;8.05;4.30;;;;;;;;;;5032542;28;20068;-67
2021/08/04 05:27:14;;;;;;;7.13;4.57;;;;;;;;;;5031875;28;20031;-66
2021/08/04 05:29:40;;;;;;;7.10;3.90;;;;;;;;;;5032707;28;20017;-66
2021/08/04 05:32:06;;;;;;;9.63;4.40;;;;;;;;;;5032538;28;20017;-67
2021/08/04 05:34:32;;;;;;;6.38;4.70;;;;;;;;;;5032463;28;20527;-66
2021/08/04 05:36:58;;;;;;;7.35;4.65;;;;;;;;;;5032212;28;20036;-67
2021/08/04 05:39:24;;;;;;;5.68;4.45;;;;;;;;;;5032788;28;20383;-68
2021/08/04 05:41:51;;;;;;;7.35;5.18;;;;;;;;;;5032879;28;20021;-67
2021/08/04 05:44:17;;;;;;;7.75;4.70;;;;;;;;;;5032684;28;20096;-67
2021/08/04 05:46:43;;;;;;;6.97;4.47;;;;;;;;;;5032258;28;20168;-68
2021/08/04 05:49:09;;;;;;;7.00;4.57;;;;;;;;;;5032016;28;20083;-68
2021/08/04 05:51:35;;;;;;;7.05;4.70;;;;;;;;;;5027006;28;20021;-67
2021/08/04 05:54:01;;;;;;;6.55;4.60;;;;;;;;;;5031737;28;20476;-67
2021/08/04 05:56:27;;;;;;;10.05;4.75;;;;;;;;;;5032354;28;20117;-67
2021/08/04 05:58:53;;;;;;;7.30;4.93;;;;;;;;;;5031589;28;20025;-67
2021/08/04 06:01:19;;;;;;;6.47;4.97;;;;;;;;;;5031324;28;20107;-67
2021/08/04 06:03:45;;;;;;;7.97;4.60;;;;;;;;;;5031830;28;20400;-67
2021/08/04 06:06:11;;;;;;;7.13;4.60;;;;;;;;;;5031854;28;20104;-67
2021/08/04 06:08:37;;;;;;;5.82;4.72;;;;;;;;;;5032066;28;20079;-66
2021/08/04 06:11:04;;;;;;;9.05;5.80;;;;;;;;;;5032012;28;20029;-67
2021/08/04 06:13:30;;;;;;;6.82;4.53;;;;;;;;;;5031998;28;20026;-68
2021/08/04 06:15:57;;;;;;;6.45;5.38;;;;;;;;;;5031324;28;20108;-67
2021/08/04 06:18:23;;;;;;;5.25;4.15;;;;;;;;;;5031751;28;20036;-67
2021/08/04 06:20:49;;;;;;;6.13;5.05;;;;;;;;;;5014077;28;20033;-67
2021/08/04 06:23:16;;;;;;;7.70;5.10;;;;;;;;;;5035280;28;20032;-68
2021/08/04 06:25:42;;;;;;;6.78;4.55;;;;;;;;;;5032334;28;20057;-67
2021/08/04 06:28:08;;;;;;;9.65;4.90;;;;;;;;;;5031758;28;20048;-67
2021/08/04 06:30:34;;;;;;;8.88;4.95;;;;;;;;;;5032790;28;20467;-65
2021/08/04 06:33:00;;;;;;;8.23;5.07;;;;;;;;;;5031025;28;20021;-67
2021/08/04 06:35:26;;;;;;;8.65;5.07;;;;;;;;;;5032029;28;20075;-67
2021/08/04 06:37:52;;;;;;;10.15;5.15;;;;;;;;;;5029875;28;20057;-66
2021/08/04 06:40:18;;;;;;;7.88;4.85;;;;;;;;;;5023073;28;20637;-67
2021/08/04 06:42:44;;;;;;;7.10;4.53;;;;;;;;;;5020937;28;20030;-66
2021/08/04 06:45:11;;;;;;;8.90;5.15;;;;;;;;;;5018648;28;20140;-66
2021/08/04 06:47:40;;;;;;;7.35;4.75;;;;;;;;;;5026897;28;20442;-66
2021/08/04 06:50:07;;;;;;;8.20;4.78;;;;;;;;;;5022645;28;20040;-66
2021/08/04 06:52:33;;;;;;;7.15;4.63;;;;;;;;;;4998373;28;20029;-67
2021/08/04 06:54:59;;;;;;;10.80;5.82;;;;;;;;;;5015761;28;20388;-67
2021/08/04 06:57:25;;;;;;;6.38;4.57;;;;;;;;;;5013484;28;20144;-66
2021/08/04 06:59:51;;;;;;;9.40;5.13;;;;;;;;;;5022678;28;20384;-67
2021/08/04 07:02:17;;;;;;;6.63;4.93;;;;;;;;;;5028362;28;20045;-67
2021/08/04 07:04:43;;;;;;;6.13;4.72;;;;;;;;;;5034420;28;20037;-66
2021/08/04 07:07:13;;;;;;;8.98;4.60;;;;;;;;;;5028447;28;20035;-65
2021/08/04 07:09:39;;;;;;;15.43;5.22;;;;;;;;;;5015686;28;20396;-66
2021/08/04 07:12:06;;;;;;;8.15;5.13;;;;;;;;;;5016988;28;20049;-66
2021/08/04 07:14:32;;;;;;;8.32;5.45;;;;;;;;;;5016375;28;20022;-67
2021/08/04 07:16:58;;;;;;;11.15;5.07;;;;;;;;;;5023257;28;20030;-66
2021/08/04 07:19:24;;;;;;;7.38;5.03;;;;;;;;;;5021565;28;20349;-66
2021/08/04 07:21:50;;;;;;;6.60;4.90;;;;;;;;;;5022888;28;20120;-67
2021/08/04 07:24:16;;;;;;;7.60;4.93;;;;;;;;;;5029625;28;20026;-66
2021/08/04 07:26:43;;;;;;;7.03;4.80;;;;;;;;;;5021203;28;20029;-67
2021/08/04 07:29:09;;;;;;;7.22;5.05;;;;;;;;;;5021387;28;20029;-67
2021/08/04 07:31:36;;;;;;;8.50;4.95;;;;;;;;;;5023780;28;20029;-66
2021/08/04 07:34:02;;;;;;;7.88;4.97;;;;;;;;;;5026720;28;20033;-66
2021/08/04 07:36:28;;;;;;;7.38;5.13;;;;;;;;;;5019996;28;20109;-66
2021/08/04 07:38:55;;;;;;;10.75;6.07;;;;;;;;;;5017536;28;20064;-67
2021/08/04 07:41:21;;;;;;;7.28;5.25;;;;;;;;;;5025199;28;20091;-66
2021/08/04 07:43:49;;;;;;;10.38;5.28;;;;;;;;;;5015138;28;20025;-69
2021/08/04 07:46:17;;;;;;;9.15;5.05;;;;;;;;;;5018947;28;20058;-66
2021/08/04 07:48:43;;;;;;;8.88;5.13;;;;;;;;;;5015666;28;20084;-65
2021/08/04 07:51:09;;;;;;;8.07;6.03;;;;;;;;;;5018294;28;20026;-69
2021/08/04 07:53:36;;;;;;;8.55;4.78;;;;;;;;;;5017599;28;20022;-66
2021/08/04 07:56:02;;;;;;;7.90;4.47;;;;;;;;;;4996353;28;20037;-66
2021/08/04 07:58:28;;;;;;;8.13;5.18;;;;;;;;;;5013758;28;20030;-66
2021/08/04 08:00:54;;;;;;;8.45;5.15;;;;;;;;;;5016582;28;20036;-66
2021/08/04 08:03:20;;;;;;;7.75;4.95;;;;;;;;;;5024290;28;20046;-66
2021/08/04 08:05:47;;;;;;;8.85;5.22;;;;;;;;;;5013505;28;20377;-67
2021/08/04 08:08:13;;;;;;;7.88;5.18;;;;;;;;;;5022496;28;20032;-68
2021/08/04 08:10:41;;;;;;;8.43;5.13;;;;;;;;;;5023776;28;20084;-67
2021/08/04 08:13:07;;;;;;;6.85;4.72;;;;;;;;;;5028539;28;20025;-67
2021/08/04 08:15:34;;;;;;;7.90;4.78;;;;;;;;;;5032185;28;20036;-68
2021/08/04 08:18:05;;;;;;;8.60;5.90;;;;;;;;;;5029676;28;20136;-67
2021/08/04 08:20:31;;;;;;;8.63;5.22;;;;;;;;;;5033205;28;20033;-67
2021/08/04 08:22:57;;;;;;;6.75;4.75;;;;;;;;;;5033164;28;20029;-67
2021/08/04 08:25:23;;;;;;;10.05;5.20;;;;;;;;;;5026350;28;20053;-68
2021/08/04 08:27:49;;;;;;;7.40;5.13;;;;;;;;;;5020807;28;20029;-68
2021/08/04 08:30:15;;;;;;;7.35;5.20;;;;;;;;;;5016459;28;20030;-67
2021/08/04 08:32:46;;;;;;;9.65;4.97;;;;;;;;;;5018247;28;20149;-68
2021/08/04 08:35:12;;;;;;;7.22;4.68;;;;;;;;;;5013248;28;20030;-68
2021/08/04 08:37:38;;;;;;;5.75;4.63;;;;;;;;;;5017057;28;20038;-67
2021/08/04 08:40:04;;;;;;;7.97;5.18;;;;;;;;;;5014801;28;20097;-68
2021/08/04 08:42:30;;;;;;;8.85;5.60;;;;;;;;;;5015755;28;20030;-67
2021/08/04 08:44:58;;;;;;;11.98;5.45;;;;;;;;;;5027320;28;20079;-67
2021/08/04 08:47:24;;;;;;;8.70;5.03;;;;;;;;;;5016418;28;20036;-68
2021/08/04 08:49:50;;;;;;;9.95;5.53;;;;;;;;;;5012660;28;20498;-67
2021/08/04 08:52:16;;;;;;;7.93;4.78;;;;;;;;;;5015413;28;20096;-67
2021/08/04 08:54:43;;;;;;;7.28;5.28;;;;;;;;;;5012961;28;20117;-68
2021/08/04 08:57:09;;;;;;;8.60;5.57;;;;;;;;;;5016613;28;20049;-68
2021/08/04 08:59:35;;;;;;;8.48;5.85;;;;;;;;;;5012395;28;20018;-67
2021/08/04 09:02:03;;;;;;;7.22;4.75;;;;;;;;;;5015014;28;20050;-68
2021/08/04 09:04:29;;;;;;;8.63;4.75;;;;;;;;;;5019771;28;20029;-67
2021/08/04 09:06:56;;;;;;;9.10;4.93;;;;;;;;;;5013890;28;20021;-66
2021/08/04 09:09:25;;;;;;;7.35;5.13;;;;;;;;;;5006499;28;20129;-67
2021/08/04 09:12:13;;;;;;;7.78;5.13;;;;;;;;;;5013976;28;20034;-68
2021/08/04 09:14:40;;;;;;;8.75;4.88;;;;;;;;;;5012438;28;20054;-67
2021/08/04 09:17:10;;;;;;;7.18;4.20;;;;;;;;;;5023640;28;20060;-67
2021/08/04 09:19:38;;;;;;;9.80;4.75;;;;;;;;;;5019844;28;20029;-67
2021/08/04 09:22:14;;;;;;;7.88;5.00;;;;;;;;;;5016023;28;20061;-67
2021/08/04 09:24:55;;;;;;;8.27;5.05;;;;;;;;;;5021389;28;20096;-68
2021/08/04 09:27:37;;;;;;;6.65;4.20;;;;;;;;;;5019798;28;20040;-68
2021/08/04 09:30:03;;;;;;;7.45;4.53;;;;;;;;;;5013011;28;20030;-68
2021/08/04 09:32:31;;;;;;;9.52;4.80;;;;;;;;;;4994643;28;20763;-68
2021/08/04 09:34:57;;;;;;;6.00;4.55;;;;;;;;;;5011568;28;20389;-68
2021/08/04 09:37:23;;;;;;;6.38;3.97;;;;;;;;;;5012094;28;20061;-67
2021/08/04 09:39:57;;;;;;;7.40;4.85;;;;;;;;;;5025799;28;20060;-68
2021/08/04 09:42:39;;;;;;;7.20;4.80;;;;;;;;;;5011989;28;20034;-69
2021/08/04 09:45:05;;;;;;;8.27;5.18;;;;;;;;;;5011898;28;20049;-68
2021/08/04 09:47:31;;;;;;;7.82;4.55;;;;;;;;;;5019314;28;20370;-68
2021/08/04 09:49:59;;;;;;;5.80;4.30;;;;;;;;;;5012623;28;20388;-68
2021/08/04 09:52:25;;;;;;;6.50;4.38;;;;;;;;;;5014754;28;20404;-68
2021/08/04 09:54:51;;;;;;;8.65;4.97;;;;;;;;;;5014403;28;20040;-69
2021/08/04 09:57:18;;;;;;;6.63;4.13;;;;;;;;;;5015424;28;20026;-67
2021/08/04 10:00:02;;;;;;;6.43;4.13;;;;;;;;;;5012156;28;20023;-67
2021/08/04 10:02:29;;;;;;;7.00;4.53;;;;;;;;;;5015791;28;20123;-68
2021/08/04 10:05:18;;;;;;;6.07;4.30;;;;;;;;;;5019277;28;20112;-68
2021/08/04 10:08:02;;;;;;;8.25;4.93;;;;;;;;;;5019100;28;20547;-68
2021/08/04 10:10:29;;;;;;;6.95;4.80;;;;;;;;;;5025168;28;20485;-68
2021/08/04 10:12:55;;;;;;;6.38;4.50;;;;;;;;;;5013697;28;20035;-68
2021/08/04 10:15:22;;;;;;;6.57;4.40;;;;;;;;;;5012778;28;20030;-67
2021/08/04 10:17:48;;;;;;;6.90;4.53;;;;;;;;;;5015026;28;20365;-68
2021/08/04 10:20:15;;;;;;;6.15;4.32;;;;;;;;;;5011814;28;20034;-68
2021/08/04 10:22:41;;;;;;;6.95;4.93;;;;;;;;;;5018072;28;20026;-69
2021/08/04 10:25:08;;;;;;;9.60;4.88;;;;;;;;;;5019555;28;20033;-68
2021/08/04 10:27:34;;;;;;;6.03;4.38;;;;;;;;;;5022712;28;20022;-68
2021/08/04 10:30:01;;;;;;;6.05;4.32;;;;;;;;;;5017523;28;20018;-68
2021/08/04 10:32:28;;;;;;;6.25;4.13;;;;;;;;;;5015887;28;20046;-68
2021/08/04 10:34:56;;;;;;;7.13;4.40;;;;;;;;;;5016051;28;20473;-67
2021/08/04 10:37:23;;;;;;;5.47;4.22;;;;;;;;;;5015885;28;20337;-68
2021/08/04 10:39:49;;;;;;;6.50;4.38;;;;;;;;;;5024803;28;20112;-69
2021/08/04 10:42:16;;;;;;;6.35;4.30;;;;;;;;;;5017877;28;20018;-68
2021/08/04 10:44:44;;;;;;;7.75;4.53;;;;;;;;;;5027918;28;20079;-69
2021/08/04 10:47:34;;;;;;;7.43;4.30;;;;;;;;;;5020177;28;20052;-68
2021/08/04 10:50:10;;;;;;;8.88;4.57;;;;;;;;;;5026172;28;20028;-70
2021/08/04 10:52:56;;;;;;;7.43;4.43;;;;;;;;;;5016529;28;20037;-68
2021/08/04 10:55:23;;;;;;;6.00;4.40;;;;;;;;;;5015279;28;20510;-68
2021/08/04 10:58:04;;;;;;;6.03;4.32;;;;;;;;;;5027301;28;20552;-68
2021/08/04 11:00:31;;;;;;;5.38;3.70;;;;;;;;;;5021420;28;20037;-67
2021/08/04 11:02:57;;;;;;;4.10;3.38;;;;;;;;;;5019322;28;20049;-68
2021/08/04 11:05:23;;;;;;;6.60;4.80;;;;;;;;;;5015285;28;20076;-68
2021/08/04 11:08:08;;;;;;;4.60;3.40;;;;;;;;;;5024885;28;20439;-68
2021/08/04 11:10:40;;;;;;;4.50;3.63;;;;;;;;;;5022446;28;20384;-69
2021/08/04 11:13:06;;;;;;;6.65;3.80;;;;;;;;;;5023727;28;20468;-68
2021/08/04 11:15:33;;;;;;;4.75;3.60;;;;;;;;;;5013939;28;20034;-67
2021/08/04 11:18:00;;;;;;;4.72;3.35;;;;;;;;;;5025097;28;20037;-68
2021/08/04 11:20:27;;;;;;;4.47;3.80;;;;;;;;;;5029636;28;20030;-69
2021/08/04 11:22:53;;;;;;;4.80;3.75;;;;;;;;;;5014521;28;20120;-69
2021/08/04 11:25:33;;;;;;;5.38;3.72;;;;;;;;;;5018689;28;20030;-68
2021/08/04 11:27:59;;;;;;;5.38;3.50;;;;;;;;;;5001627;28;20490;-68
2021/08/04 11:30:32;;;;;;;5.82;4.20;;;;;;;;;;5020666;28;20443;-68
2021/08/04 11:33:16;;;;;;;5.43;3.85;;;;;;;;;;5016345;28;20049;-68
2021/08/04 11:35:43;;;;;;;4.97;3.75;;;;;;;;;;5019719;28;20034;-68
2021/08/04 11:38:09;;;;;;;5.30;3.60;;;;;;;;;;5020404;28;20526;-68
2021/08/04 11:40:35;;;;;;;5.25;3.60;;;;;;;;;;5015091;28;20034;-67
2021/08/04 11:43:01;;;;;;;4.22;3.28;;;;;;;;;;5014269;28;20029;-69
2021/08/04 11:45:28;;;;;;;6.47;3.65;;;;;;;;;;5016055;28;20030;-69
2021/08/04 11:47:54;;;;;;;6.35;3.78;;;;;;;;;;5015672;28;20018;-68
2021/08/04 11:50:21;;;;;;;5.97;4.35;;;;;;;;;;5021913;28;20017;-68
2021/08/04 11:52:47;;;;;;;5.03;3.53;;;;;;;;;;5017650;28;20384;-69
2021/08/04 11:55:15;;;;;;;4.28;3.35;;;;;;;;;;5021745;28;20125;-69
2021/08/04 11:57:43;;;;;;;5.35;3.80;;;;;;;;;;5016755;28;20026;-69
2021/08/04 12:00:17;;;;;;;4.47;3.30;;;;;;;;;;5019031;28;20080;-69
2021/08/04 12:02:43;;;;;;;;;;;;;;;;;;5016613;28;20053;-68
2021/08/04 12:05:11;;;;;;;6.40;3.72;;;;;;;;;;5031094;28;19913;-68
2021/08/04 12:07:38;;;;;;;5.43;3.88;;;;;;;;;;5025969;28;20476;-68
2021/08/04 12:10:08;;;;;;;5.43;3.70;;;;;;;;;;5002251;28;20029;-68
2021/08/04 12:12:36;;;;;;;6.07;3.70;;;;;;;;;;5017093;28;20022;-68
2021/08/04 12:15:03;;;;;;;6.05;3.70;;;;;;;;;;5018734;28;20018;-70
2021/08/04 12:17:32;;;;;;;7.05;3.88;;;;;;;;;;5013453;28;20026;-68
2021/08/04 12:19:58;;;;;;;6.40;4.38;;;;;;;;;;5018198;28;20038;-68
2021/08/04 12:22:26;;;;;;;7.63;3.75;;;;;;;;;;5015497;28;20026;-68
2021/08/04 12:25:02;;;;;;;4.65;3.78;;;;;;;;;;5014800;28;20081;-68
2021/08/04 12:27:29;;;;;;;4.80;3.90;;;;;;;;;;5013089;28;20507;-67
2021/08/04 12:30:07;;;;;;;4.50;3.60;;;;;;;;;;5025146;28;20025;-69
2021/08/04 12:32:35;;;;;;;6.15;4.10;;;;;;;;;;5030895;28;20022;-68
2021/08/04 12:35:04;;;;;;;4.95;3.75;;;;;;;;;;5033460;28;20379;-68
2021/08/04 12:37:31;;;;;;;9.50;5.25;;;;;;;;;;5034218;28;20060;-67
2021/08/04 12:40:17;;;;;;;4.93;3.97;;;;;;;;;;5027905;28;20024;-67
2021/08/04 12:42:43;;;;;;;;;;;;;;;;;;5019169;28;20022;-67
2021/08/04 12:45:25;;;;;;;4.07;3.05;;;;;;;;;;4996950;28;19920;-67
2021/08/04 12:47:54;;;;;;;3.83;3.28;;;;;;;;;;5032953;28;20095;-67
2021/08/04 12:50:21;;;;;;;5.55;2.85;;;;;;;;;;5032841;28;20479;-68
2021/08/04 12:52:47;;;;;;;3.92;3.42;;;;;;;;;;5032756;28;20108;-68
2021/08/04 12:55:16;;;;;;;5.85;3.70;;;;;;;;;;5032844;28;20055;-67
2021/08/04 12:57:43;;;;;;;6.88;3.97;;;;;;;;;;5027447;28;20021;-67
2021/08/04 13:00:09;;;;;;;4.20;3.40;;;;;;;;;;4995136;28;20041;-68
2021/08/04 13:02:39;;;;;;;4.93;3.88;;;;;;;;;;5019333;28;20045;-68
2021/08/04 13:05:06;;;;;;;5.25;3.65;;;;;;;;;;5020314;28;20480;-67
2021/08/04 13:07:42;;;;;;;5.30;3.28;;;;;;;;;;5027932;28;20112;-68
2021/08/04 13:10:09;;;;;;;5.13;3.28;;;;;;;;;;5029746;28;20029;-68
2021/08/04 13:12:35;;;;;;;4.88;3.78;;;;;;;;;;5013030;28;20036;-69
2021/08/04 13:15:23;;;;;;;3.78;3.22;;;;;;;;;;5018624;28;20036;-70
2021/08/04 13:17:49;;;;;;;3.92;3.13;;;;;;;;;;5025070;28;20044;-69
2021/08/04 13:20:20;;;;;;;4.35;3.78;;;;;;;;;;5022165;28;20147;-69
2021/08/04 13:22:55;;;;;;;4.50;3.55;;;;;;;;;;5018209;28;20422;-68
2021/08/04 13:25:22;;;;;;;3.70;3.30;;;;;;;;;;5013116;28;20042;-68
2021/08/04 13:27:54;;;;;;;3.78;3.13;;;;;;;;;;5014869;28;20083;-68
2021/08/04 13:30:21;;;;;;;3.45;3.10;;;;;;;;;;5019337;28;20173;-69
2021/08/04 13:32:47;;;;;;;4.28;3.80;;;;;;;;;;5016767;28;20465;-68
2021/08/04 13:35:14;;;;;;;4.05;2.83;;;;;;;;;;5016710;28;20388;-69
2021/08/04 13:37:40;;;;;;;3.72;3.25;;;;;;;;;;5012454;28;20026;-68
2021/08/04 13:40:07;;;;;;;3.30;2.80;;;;;;;;;;5014881;28;20511;-69
2021/08/04 13:42:37;;;;;;;4.13;2.80;;;;;;;;;;5012856;28;20037;-69
2021/08/04 13:45:06;;;;;;;2.95;2.65;;;;;;;;;;5012160;28;20025;-69
2021/08/04 13:47:32;;;;;;;5.93;3.42;;;;;;;;;;5018358;28;20038;-69
2021/08/04 13:50:02;;;;;;;3.45;3.15;;;;;;;;;;5014476;28;20120;-68
2021/08/04 13:52:31;;;;;;;4.63;2.88;;;;;;;;;;5021575;28;20705;-69
2021/08/04 13:54:57;;;;;;;3.28;2.58;;;;;;;;;;5014968;28;20097;-68
2021/08/04 13:57:24;;;;;;;4.82;3.30;;;;;;;;;;5014492;28;20571;-68
2021/08/04 13:59:50;;;;;;;3.63;3.20;;;;;;;;;;5014919;28;20116;-68
2021/08/04 14:02:16;;;;;;;5.13;3.63;;;;;;;;;;5017812;28;20045;-68
2021/08/04 14:04:42;;;;;;;3.45;3.10;;;;;;;;;;5016085;28;20484;-69
2021/08/04 14:07:08;;;;;;;5.07;3.63;;;;;;;;;;5016286;28;20139;-69
2021/08/04 14:09:34;;;;;;;3.38;2.85;;;;;;;;;;5012504;28;20026;-68
2021/08/04 14:12:01;;;;;;;4.60;3.05;;;;;;;;;;5013320;28;20025;-69
2021/08/04 14:14:27;;;;;;;4.18;2.97;;;;;;;;;;5016879;28;20033;-69
2021/08/04 14:16:53;;;;;;;3.60;2.67;;;;;;;;;;5022282;28;20072;-69
2021/08/04 14:19:19;;;;;;;2.50;2.17;;;;;;;;;;5020572;28;20109;-69
2021/08/04 14:21:45;;;;;;;4.15;2.67;;;;;;;;;;5020399;28;20060;-68
2021/08/04 14:24:12;;;;;;;3.38;2.60;;;;;;;;;;5022144;28;20026;-69
2021/08/04 14:26:38;;;;;;;3.10;2.35;;;;;;;;;;5010881;28;20435;-69
2021/08/04 14:29:04;;;;;;;2.88;2.28;;;;;;;;;;5017547;28;20025;-68
2021/08/04 14:31:31;;;;;;;2.83;2.50;;;;;;;;;;5016539;28;20033;-68
2021/08/04 14:33:57;;;;;;;2.72;1.83;;;;;;;;;;5014256;28;20469;-68
2021/08/04 14:36:24;;;;;;;3.78;2.17;;;;;;;;;;5013814;28;20388;-70
2021/08/04 14:38:50;;;;;;;1.90;1.70;;;;;;;;;;5011358;28;20546;-68
2021/08/04 14:41:16;;;;;;;1.92;1.63;;;;;;;;;;5019917;28;20026;-68
2021/08/04 14:43:42;;;;;;;2.97;1.90;;;;;;;;;;5026707;28;20372;-68
2021/08/04 14:46:08;;;;;;;1.88;1.70;;;;;;;;;;5003633;28;20026;-68